Nelson, Ohio
Current Conditions -  °F | °C
As of 6:22 PM on Wednesday 17 Dec 2014 (Local Time) from KPOV Reporting Station
Overcast Overcast  
Wind Chill: 18°   Ceiling: 1800
Heat Index: 30°   Visibility: 10mi
Dew Point: 22°   Wind: 16mph
Humidity: 72%   Direction: 280°W
Pressure: 30.08"   Gusts: 22mph
Location:  41.3076°N, 81.0739°W
Report Text: KPOV 172322Z AUTO 28014G19KT 10SM OVC018 M01/M06 A3008 RMK AO2 T10121056
Loading
Personal Weather Stations






























Interactive Weather Map New forecast layout! Learn more

10-Day Weather Forecast

Advertisements
Track Severe Weather on mobile